Time;durP1;ratioP1;P1;durP2;ratioP2;P2;SDS_P1;SDS_P2;PMS_P1;PMS_P2;Temp;Humidity;BMP_temperature;BMP_pressure;BME280_temperature;BME280_humidity;BME280_pressure;Samples;Min_cycle;Max_cycle;Signal;HPM_P1;HPM_P2
2021/04/13 00:02:35;;;;;;;;;;;;;;;11.84;67.57;101248.59;1708406;84;20366;-60
2021/04/13 00:05:47;;;;;;;;;;;;;;;11.84;67.61;101244.48;1708423;83;20275;-60
2021/04/13 00:08:55;;;;;;;;;;;;;;;11.84;67.57;101250.80;1708653;82;20307;-60
2021/04/13 00:12:02;;;;;;;;;;;;;;;11.84;67.44;101248.06;1708564;84;20667;-60
2021/04/13 00:15:11;;;;;;;;;;;;;;;11.85;67.45;101251.67;1708355;82;20532;-60
2021/04/13 00:18:15;;;;;;;;;;;;;;;11.84;67.41;101256.29;1708347;84;20572;-60
2021/04/13 00:21:27;;;;;;;;;;;;;;;11.80;67.45;101248.55;1693856;83;20278;-60
2021/04/13 00:24:32;;;;;;;;;;;;;;;11.80;67.58;101245.81;1708452;82;20315;-60
2021/04/13 00:27:36;;;;;;;;;;;;;;;11.81;67.57;101250.30;1708593;84;20279;-61
2021/04/13 00:30:53;;;;;;;;;;;;;;;11.83;67.53;101246.35;1708519;82;20284;-61
2021/04/13 00:33:59;;;;;;;;;;;;;;;11.83;67.45;101245.48;1708595;82;20244;-61
2021/04/13 00:37:23;;;;;;;;;;;;;;;11.82;67.50;101242.40;1705875;82;20581;-60
2021/04/13 00:40:37;;;;;;;;;;;;;;;11.80;67.53;101243.94;1745044;82;20258;-61
2021/04/13 00:43:41;;;;;;;;;;;;;;;11.76;67.58;101238.94;1745092;82;20257;-61
2021/04/13 00:46:58;;;;;;;;;;;;;;;11.71;67.68;101235.32;1745070;82;20237;-60
2021/04/13 00:50:05;;;;;;;;;;;;;;;11.66;67.76;101229.95;1745146;82;20249;-61
2021/04/13 00:53:11;;;;;;;;;;;;;;;11.63;67.89;101237.14;1745100;82;20217;-60
2021/04/13 00:56:18;;;;;;;;;;;;;;;11.61;68.00;101232.28;1745087;82;20249;-60
2021/04/13 00:59:23;;;;;;;;;;;;;;;11.61;68.11;101238.64;1744935;81;20205;-60
2021/04/13 01:02:31;;;;;;;;;;;;;;;11.58;68.20;101240.84;1745121;82;20240;-60
2021/04/13 01:05:49;;;;;;;;;;;;;;;11.57;68.31;101244.62;1745064;82;20221;-60
2021/04/13 01:08:54;;;;;;;;;;;;;;;11.53;68.37;101229.48;1745105;82;20265;-60
2021/04/13 01:12:05;;;;;;;;;;;;;;;11.49;68.44;101231.72;1745101;82;20213;-61
2021/04/13 01:15:11;;;;;;;;;;;;;;;11.44;68.55;101216.75;1745076;82;20569;-61
2021/04/13 01:18:22;;;;;;;;;;;;;;;11.43;68.63;101226.02;1745280;82;20201;-61
2021/04/13 01:21:59;;;;;;;;;;;;;;;11.41;68.79;101222.56;1745108;82;20244;-61
2021/04/13 01:25:09;;;;;;;;;;;;;;;11.40;68.81;101220.86;1745153;82;20209;-60
2021/04/13 01:28:20;;;;;;;;;;;;;;;11.35;68.92;101221.84;1745102;82;20209;-61
2021/04/13 01:31:50;;;;;;;;;;;;;;;11.33;69.06;101225.25;1745186;82;20218;-61
2021/04/13 01:35:07;;;;;;;;;;;;;;;11.29;69.09;101226.60;1748676;82;20621;-61
2021/04/13 01:38:18;;;;;;;;;;;;;;;11.25;69.24;101219.70;1738254;82;20218;-60
2021/04/13 01:44:23;;;;;;;;;;;;;;;11.18;69.45;101213.16;1740453;82;20286;-61
2021/04/13 01:47:29;;;;;;;;;;;;;;;11.12;69.51;101200.94;1744748;82;20287;-61
2021/04/13 01:50:37;;;;;;;;;;;;;;;11.07;69.60;101203.82;1740438;81;20687;-61
2021/04/13 01:53:51;;;;;;;;;;;;;;;11.04;69.67;101216.44;1740349;82;20253;-61
2021/04/13 01:57:11;;;;;;;;;;;;;;;10.97;69.76;101211.26;1740478;82;20241;-61
2021/04/13 02:00:24;;;;;;;;;;;;;;;10.91;69.85;101208.62;1740297;82;20229;-61
2021/04/13 02:03:37;;;;;;;;;;;;;;;10.85;69.96;101212.00;1740400;82;20214;-61
2021/04/13 02:06:53;;;;;;;;;;;;;;;10.80;70.14;101221.20;1740432;82;20307;-60
2021/04/13 02:10:01;;;;;;;;;;;;;;;10.71;70.31;101221.27;1740425;82;20261;-60
2021/04/13 02:13:09;;;;;;;;;;;;;;;10.67;70.54;101222.12;1740311;82;20210;-60
2021/04/13 02:16:15;;;;;;;;;;;;;;;10.66;70.67;101220.37;1740402;82;20296;-61
2021/04/13 02:19:21;;;;;;;;;;;;;;;10.67;70.75;101223.98;1740330;82;20309;-61
2021/04/13 02:22:27;;;;;;;;;;;;;;;10.70;70.81;101212.72;1740269;82;20249;-62
2021/04/13 02:25:35;;;;;;;;;;;;;;;10.74;70.80;101219.59;1740346;82;20214;-60
2021/04/13 02:28:41;;;;;;;;;;;;;;;10.75;70.69;101222.70;1740367;82;20333;-61
2021/04/13 02:31:48;;;;;;;;;;;;;;;10.76;70.59;101212.95;1745038;82;20214;-61
2021/04/13 02:34:55;;;;;;;;;;;;;;;10.76;70.53;101216.19;1740346;81;20210;-61
2021/04/13 02:38:03;;;;;;;;;;;;;;;10.73;70.52;101213.77;1735475;79;20191;-61
2021/04/13 02:41:12;;;;;;;;;;;;;;;10.70;70.63;101208.11;1721245;83;20578;-61
2021/04/13 02:44:18;;;;;;;;;;;;;;;10.70;70.62;101206.74;1720947;83;20266;-61
2021/04/13 02:47:23;;;;;;;;;;;;;;;10.67;70.65;101203.45;1720914;83;20258;-61
2021/04/13 02:50:28;;;;;;;;;;;;;;;10.65;70.67;101206.84;1721001;83;20577;-60
2021/04/13 02:53:35;;;;;;;;;;;;;;;10.61;70.68;101210.92;1721016;83;20214;-60
2021/04/13 02:56:41;;;;;;;;;;;;;;;10.61;70.76;101197.23;1720951;83;20207;-60
2021/04/13 02:59:46;;;;;;;;;;;;;;;10.59;70.86;101199.59;1720839;83;20203;-61
2021/04/13 03:02:53;;;;;;;;;;;;;;;10.61;70.97;101186.28;1720966;83;20206;-59
2021/04/13 03:06:00;;;;;;;;;;;;;;;10.62;70.92;101187.50;1721010;83;20551;-59
2021/04/13 03:09:03;;;;;;;;;;;;;;;10.63;70.78;101182.86;1721097;83;20199;-59
2021/04/13 03:12:09;;;;;;;;;;;;;;;10.59;70.69;101180.44;1721307;83;20275;-59
2021/04/13 03:15:15;;;;;;;;;;;;;;;10.55;70.70;101174.94;1720896;83;20219;-59
2021/04/13 03:18:22;;;;;;;;;;;;;;;10.54;70.76;101177.83;1721197;83;20214;-59
2021/04/13 03:21:30;;;;;;;;;;;;;;;10.48;70.67;101177.93;1721366;83;20270;-59
2021/04/13 03:24:38;;;;;;;;;;;;;;;10.45;70.77;101171.41;1750376;82;20295;-59
2021/04/13 03:27:42;;;;;;;;;;;;;;;10.44;70.85;101170.19;1750230;82;20247;-58
2021/04/13 03:30:47;;;;;;;;;;;;;;;10.40;70.87;101172.91;1750437;82;20299;-58
2021/04/13 03:33:51;;;;;;;;;;;;;;;10.40;70.94;101175.64;1756529;81;20267;-59
2021/04/13 03:36:57;;;;;;;;;;;;;;;10.37;70.89;101173.19;1750660;81;20244;-59
2021/04/13 03:40:00;;;;;;;;;;;;;;;10.38;71.00;101163.48;1756597;80;20322;-58
2021/04/13 03:43:04;;;;;;;;;;;;;;;10.41;71.02;101164.53;1760703;81;20242;-58
2021/04/13 03:46:10;;;;;;;;;;;;;;;10.48;71.11;101160.14;1760632;81;20290;-60
2021/04/13 03:49:15;;;;;;;;;;;;;;;10.58;71.06;101156.82;1763628;81;20627;-60
2021/04/13 03:52:33;;;;;;;;;;;;;;;10.68;70.88;101154.00;1736096;83;20322;-60
2021/04/13 03:55:37;;;;;;;;;;;;;;;10.80;70.78;101145.03;1735811;83;20278;-59
2021/04/13 03:58:45;;;;;;;;;;;;;;;10.89;70.54;101144.08;1735867;83;20294;-60
2021/04/13 04:01:49;;;;;;;;;;;;;;;10.96;70.40;101147.88;1736012;83;20266;-59
2021/04/13 04:04:53;;;;;;;;;;;;;;;11.02;70.28;101145.89;1735993;83;20342;-60
2021/04/13 04:08:03;;;;;;;;;;;;;;;11.08;70.29;101149.36;1736135;82;20290;-61
2021/04/13 04:11:06;;;;;;;;;;;;;;;11.09;70.25;101151.94;1735853;83;20859;-60
2021/04/13 04:14:09;;;;;;;;;;;;;;;11.13;70.14;101162.07;1736195;81;20221;-59
2021/04/13 04:17:17;;;;;;;;;;;;;;;11.14;70.02;101163.78;1736229;83;20293;-61
2021/04/13 04:20:24;;;;;;;;;;;;;;;11.13;69.93;101160.17;1736335;81;20210;-59
2021/04/13 04:23:31;;;;;;;;;;;;;;;11.14;69.92;101170.13;1736185;83;20210;-60
2021/04/13 04:26:40;;;;;;;;;;;;;;;11.17;69.89;101168.94;1736122;83;20313;-61
2021/04/13 04:29:49;;;;;;;;;;;;;;;11.21;69.92;101186.80;1746779;81;20196;-60
2021/04/13 04:32:52;;;;;;;;;;;;;;;11.26;69.92;101187.15;1775346;81;20501;-60
2021/04/13 04:35:56;;;;;;;;;;;;;;;11.34;69.89;101187.20;1775415;81;20219;-60
2021/04/13 04:39:00;;;;;;;;;;;;;;;11.42;69.81;101184.02;1775528;81;20203;-59
2021/04/13 04:42:15;;;;;;;;;;;;;;;11.47;69.61;101182.16;1775516;81;20215;-60
2021/04/13 04:45:22;;;;;;;;;;;;;;;11.51;69.47;101187.69;1774969;81;20259;-60
2021/04/13 04:48:28;;;;;;;;;;;;;;;11.55;69.43;101187.69;1775406;81;20584;-60
2021/04/13 04:51:32;;;;;;;;;;;;;;;11.60;69.21;101185.33;1775291;81;20207;-60
2021/04/13 04:54:38;;;;;;;;;;;;;;;11.66;69.01;101190.19;1775444;81;20215;-60
2021/04/13 04:57:42;;;;;;;;;;;;;;;11.77;69.05;101183.05;1768680;81;20208;-60
2021/04/13 05:00:47;;;;;;;;;;;;;;;11.89;68.88;101176.27;1772476;81;20243;-60
2021/04/13 05:03:51;;;;;;;;;;;;;;;12.03;68.56;101182.48;1773672;80;20642;-61
2021/04/13 05:06:55;;;;;;;;;;;;;;;12.19;68.36;101185.80;1774446;81;20211;-61
2021/04/13 05:10:01;;;;;;;;;;;;;;;12.31;68.06;101192.18;1774496;81;20566;-61
2021/04/13 05:13:08;;;;;;;;;;;;;;;12.45;67.86;101187.41;1775668;81;20587;-60
2021/04/13 05:16:13;;;;;;;;;;;;;;;12.65;67.66;101197.08;1769056;81;20482;-63
2021/04/13 05:19:17;;;;;;;;;;;;;;;12.89;67.44;101192.95;1771125;79;20389;-61
2021/04/13 05:22:21;;;;;;;;;;;;;;;13.10;66.69;101185.09;1774969;81;20439;-60
2021/04/13 05:25:28;;;;;;;;;;;;;;;13.21;66.24;101194.37;1761512;81;20211;-58
2021/04/13 05:28:33;;;;;;;;;;;;;;;13.33;66.05;101196.25;1755281;81;20212;-58
2021/04/13 05:31:40;;;;;;;;;;;;;;;13.36;65.64;101192.66;1754136;81;20219;-60
2021/04/13 05:34:47;;;;;;;;;;;;;;;13.38;65.45;101197.98;1744750;81;20254;-58
2021/04/13 05:37:52;;;;;;;;;;;;;;;13.42;65.30;101198.83;1771345;81;20234;-58
2021/04/13 05:41:00;;;;;;;;;;;;;;;13.47;65.17;101201.91;1770162;78;20227;-61
2021/04/13 05:44:06;;;;;;;;;;;;;;;13.49;64.97;101199.83;1743568;81;20536;-58
2021/04/13 05:47:09;;;;;;;;;;;;;;;13.53;64.72;101197.08;1750737;81;20252;-58
2021/04/13 05:50:15;;;;;;;;;;;;;;;13.61;64.64;101195.33;1764338;81;20236;-58
2021/04/13 05:53:18;;;;;;;;;;;;;;;13.67;64.47;101199.61;1759609;81;20276;-58
2021/04/13 05:56:26;;;;;;;;;;;;;;;13.75;64.25;101198.76;1760338;81;20564;-59
2021/04/13 05:59:35;;;;;;;;;;;;;;;13.84;63.96;101194.43;1753200;81;20203;-58
2021/04/13 06:02:38;;;;;;;;;;;;;;;13.92;63.51;101185.28;1774733;81;20272;-58
2021/04/13 06:05:42;;;;;;;;;;;;;;;14.06;63.30;101195.54;1769660;81;20230;-59
2021/04/13 06:08:45;;;;;;;;;;;;;;;14.16;62.43;101191.52;1767430;81;20563;-55
2021/04/13 06:11:50;;;;;;;;;;;;;;;14.17;62.26;101191.02;1757127;81;20642;-59
2021/04/13 06:14:56;;;;;;;;;;;;;;;14.24;61.94;101187.89;1751641;81;20271;-59
2021/04/13 06:18:00;;;;;;;;;;;;;;;14.28;61.98;101187.38;1768937;81;20254;-57
2021/04/13 06:21:07;;;;;;;;;;;;;;;14.42;61.23;101185.74;1749437;81;20571;-58
2021/04/13 06:24:14;;;;;;;;;;;;;;;14.49;61.02;101183.45;1744048;81;20204;-58
2021/04/13 06:27:18;;;;;;;;;;;;;;;14.56;60.81;101180.32;1744533;82;20216;-58
2021/04/13 06:30:26;;;;;;;;;;;;;;;14.65;60.03;101177.00;1744512;81;20278;-58
2021/04/13 06:33:34;;;;;;;;;;;;;;;14.64;59.50;101180.27;1738622;81;20196;-58
2021/04/13 06:36:40;;;;;;;;;;;;;;;14.61;59.32;101186.66;1758248;81;20242;-58
2021/04/13 06:39:45;;;;;;;;;;;;;;;14.57;58.80;101167.41;1755344;81;20563;-59
2021/04/13 06:43:08;;;;;;;;;;;;;;;14.54;59.06;101171.91;1754218;81;20216;-58
2021/04/13 06:46:39;;;;;;;;;;;;;;;14.54;59.10;101181.02;1738039;82;20220;-58
2021/04/13 06:50:17;;;;;;;;;;;;;;;14.65;58.74;101171.49;1723907;82;20200;-58
2021/04/13 06:53:51;;;;;;;;;;;;;;;14.79;58.79;101172.91;1739491;82;20207;-56
2021/04/13 06:56:58;;;;;;;;;;;;;;;14.89;58.24;101183.69;1740918;82;20648;-56
2021/04/13 07:00:38;;;;;;;;;;;;;;;15.04;57.63;101184.62;1750362;82;20315;-55
2021/04/13 07:04:03;;;;;;;;;;;;;;;15.17;57.44;101176.58;1726801;82;20903;-56
2021/04/13 07:07:12;;;;;;;;;;;;;;;15.34;57.22;101178.13;1719960;82;20578;-56
2021/04/13 07:10:49;;;;;;;;;;;;;;;15.50;56.52;101165.59;1731261;81;20214;-57
2021/04/13 07:14:02;;;;;;;;;;;;;;;15.63;55.46;101157.52;1734769;82;20263;-57
2021/04/13 07:17:09;;;;;;;;;;;;;;;15.76;54.96;101158.23;1739444;82;20239;-59
2021/04/13 07:20:25;;;;;;;;;;;;;;;15.77;54.34;101162.19;1733485;81;20490;-58
2021/04/13 07:23:44;;;;;;;;;;;;;;;15.79;54.46;101162.83;1722376;82;20440;-56
2021/04/13 07:26:50;;;;;;;;;;;;;;;15.78;54.22;101157.49;1741204;82;20213;-56
2021/04/13 07:30:02;;;;;;;;;;;;;;;15.82;54.53;101166.62;1749887;82;20608;-55
2021/04/13 07:33:08;;;;;;;;;;;;;;;15.83;54.23;101165.55;1735620;82;20236;-55
2021/04/13 07:36:20;;;;;;;;;;;;;;;15.79;54.05;101164.75;1750283;82;20208;-57
2021/04/13 07:39:22;;;;;;;;;;;;;;;15.82;53.94;101169.37;1719908;82;20238;-55
2021/04/13 07:42:38;;;;;;;;;;;;;;;15.94;53.82;101156.79;1720699;83;20285;-56
2021/04/13 07:46:00;;;;;;;;;;;;;;;16.06;53.31;101161.31;1720546;83;20646;-55
2021/04/13 07:49:16;;;;;;;;;;;;;;;16.12;53.15;101164.16;1731538;83;20242;-55
2021/04/13 07:52:42;;;;;;;;;;;;;;;16.27;53.09;101162.22;1712591;83;20267;-56
2021/04/13 07:55:57;;;;;;;;;;;;;;;16.38;52.84;101157.56;1729407;81;20267;-56
2021/04/13 07:59:17;;;;;;;;;;;;;;;16.43;52.54;101160.61;1722750;83;20206;-55
2021/04/13 08:02:23;;;;;;;;;;;;;;;16.50;52.16;101164.87;1719605;83;20282;-57
2021/04/13 08:05:44;;;;;;;;;;;;;;;16.52;51.89;101163.29;1730125;82;20258;-56
2021/04/13 08:08:53;;;;;;;;;;;;;;;16.44;51.72;101162.34;1724779;82;20198;-56
2021/04/13 08:12:18;;;;;;;;;;;;;;;16.39;52.13;101157.05;1722462;83;20210;-58
2021/04/13 08:15:24;;;;;;;;;;;;;;;16.32;52.04;101160.25;1723566;82;20219;-58
2021/04/13 08:18:41;;;;;;;;;;;;;;;16.27;52.54;101172.41;1722789;83;20226;-58
2021/04/13 08:21:48;;;;;;;;;;;;;;;16.25;52.29;101164.86;1731578;83;20249;-57
2021/04/13 08:24:58;;;;;;;;;;;;;;;16.19;52.41;101159.56;1708270;83;20211;-57
2021/04/13 08:28:14;;;;;;;;;;;;;;;16.18;52.97;101151.47;1731526;82;20227;-58
2021/04/13 08:35:36;;;;;;;;;;;;;;;16.13;52.61;101158.95;1714982;83;20209;-59
2021/04/13 08:38:44;;;;;;;;;;;;;;;16.09;52.71;101160.38;1709504;83;20279;-59
2021/04/13 08:41:56;;;;;;;;;;;;;;;15.95;52.99;101158.48;1730542;83;20262;-59
2021/04/13 08:45:03;;;;;;;;;;;;;;;15.92;53.32;101149.21;1751662;80;20211;-58
2021/04/13 08:48:29;;;;;;;;;;;;;;;15.90;53.85;101150.47;1747642;81;20471;-58
2021/04/13 08:51:52;;;;;;;;;;;;;;;16.02;54.08;101148.91;1755307;81;20239;-59
2021/04/13 08:55:10;;;;;;;;;;;;;;;16.21;53.70;101142.27;1766717;81;20208;-57
2021/04/13 08:58:24;;;;;;;;;;;;;;;16.34;53.26;101135.53;1761248;81;20279;-58
2021/04/13 09:01:38;;;;;;;;;;;;;;;16.47;53.29;101140.91;1707144;83;20619;-57
2021/04/13 09:04:42;;;;;;;;;;;;;;;16.60;52.75;101139.67;1743097;82;20641;-58
2021/04/13 09:08:01;;;;;;;;;;;;;;;16.82;52.61;101131.19;1782792;80;20223;-58
2021/04/13 09:11:24;;;;;;;;;;;;;;;17.02;52.21;101129.97;1783471;80;20207;-57
2021/04/13 09:14:46;;;;;;;;;;;;;;;17.09;51.27;101127.61;1738369;80;20225;-56
2021/04/13 09:18:16;;;;;;;;;;;;;;;17.01;51.02;101125.50;1731213;82;20232;-57
2021/04/13 09:21:39;;;;;;;;;;;;;;;17.02;51.00;101121.67;1762052;81;20207;-57
2021/04/13 09:24:51;;;;;;;;;;;;;;;16.86;50.55;101123.33;1766677;81;20207;-58
2021/04/13 09:27:59;;;;;;;;;;;;;;;16.78;50.72;101114.65;1767945;81;20200;-57
2021/04/13 09:31:11;;;;;;;;;;;;;;;16.78;51.33;101115.16;1766770;81;20235;-58
2021/04/13 09:34:30;;;;;;;;;;;;;;;16.85;51.52;101118.86;1766131;81;20263;-57
2021/04/13 09:37:58;;;;;;;;;;;;;;;16.91;51.76;101115.30;1767216;81;20603;-58
2021/04/13 09:41:25;;;;;;;;;;;;;;;16.94;51.25;101108.84;1737585;82;20241;-57
2021/04/13 09:44:44;;;;;;;;;;;;;;;16.84;51.08;101097.80;1737296;82;20206;-57
2021/04/13 09:48:17;;;;;;;;;;;;;;;16.87;51.49;101094.64;1708041;84;20214;-56
2021/04/13 09:51:27;;;;;;;;;;;;;;;16.99;51.20;101090.27;1734849;82;20223;-57
2021/04/13 09:54:43;;;;;;;;;;;;;;;17.18;51.56;101095.09;1737128;82;20232;-58
2021/04/13 09:57:58;;;;;;;;;;;;;;;17.30;51.10;101094.89;1737073;82;20256;-57
2021/04/13 10:01:25;;;;;;;;;;;;;;;17.35;50.20;101095.97;1737268;82;20219;-58
2021/04/13 10:04:56;;;;;;;;;;;;;;;17.32;50.27;101092.23;1736622;81;20212;-58
2021/04/13 10:08:09;;;;;;;;;;;;;;;17.33;50.40;101087.02;1737458;82;20542;-58
2021/04/13 10:11:19;;;;;;;;;;;;;;;17.31;49.90;101100.73;1733240;82;20768;-59
2021/04/13 10:14:39;;;;;;;;;;;;;;;17.24;50.14;101096.53;1728280;83;20207;-58
2021/04/13 10:18:06;;;;;;;;;;;;;;;17.32;49.39;101092.75;1728775;82;20844;-58
2021/04/13 10:21:34;;;;;;;;;;;;;;;17.43;48.93;101088.03;1753254;81;20279;-58
2021/04/13 10:25:06;;;;;;;;;;;;;;;17.51;49.44;101096.21;1714143;82;20206;-55
2021/04/13 10:28:40;;;;;;;;;;;;;;;17.49;49.09;101099.73;1735422;82;20204;-55
2021/04/13 10:32:11;;;;;;;;;;;;;;;17.48;49.01;101096.62;1724790;82;20323;-61
2021/04/13 10:35:44;;;;;;;;;;;;;;;17.45;48.82;101097.90;1739235;81;20235;-62
2021/04/13 10:39:14;;;;;;;;;;;;;;;17.40;49.50;101105.05;1736904;82;20204;-62
2021/04/13 10:42:35;;;;;;;;;;;;;;;17.29;50.04;101106.48;1737005;82;20228;-62
2021/04/13 10:45:57;;;;;;;;;;;;;;;17.22;49.83;101104.73;1707032;81;20554;-61
2021/04/13 10:49:42;;;;;;;;;;;;;;;17.16;50.20;101106.38;1755685;79;20228;-61
2021/04/13 10:52:57;;;;;;;;;;;;;;;17.11;50.16;101103.89;1774068;81;20254;-61
2021/04/13 10:56:34;;;;;;;;;;;;;;;17.06;50.28;101102.25;1773956;81;20212;-62
2021/04/13 11:00:11;;;;;;;;;;;;;;;16.97;50.54;101110.34;1773647;81;20599;-62
2021/04/13 11:03:35;;;;;;;;;;;;;;;16.92;50.60;101105.41;1774618;81;20219;-62
2021/04/13 11:06:58;;;;;;;;;;;;;;;16.94;50.71;101104.70;1775085;81;20250;-61
2021/04/13 11:10:24;;;;;;;;;;;;;;;16.98;50.87;101112.08;1775656;79;20192;-61
2021/04/13 11:13:47;;;;;;;;;;;;;;;16.94;50.97;101106.59;1766843;81;20270;-62
2021/04/13 11:17:21;;;;;;;;;;;;;;;16.77;51.30;101106.03;1743924;82;20223;-62
2021/04/13 11:20:30;;;;;;;;;;;;;;;16.69;51.67;101100.64;1772137;81;20253;-63
2021/04/13 11:23:52;;;;;;;;;;;;;;;16.62;51.91;101103.02;1760743;80;20217;-62
2021/04/13 11:27:18;;;;;;;;;;;;;;;16.55;51.98;101103.46;1775201;81;20265;-62
2021/04/13 11:31:00;;;;;;;;;;;;;;;16.58;52.07;101100.30;1758208;81;20232;-63
2021/04/13 11:34:25;;;;;;;;;;;;;;;16.57;52.22;101098.05;1768187;81;20207;-61
2021/04/13 11:37:49;;;;;;;;;;;;;;;16.60;52.02;101096.82;1773639;81;20207;-62
2021/04/13 11:41:07;;;;;;;;;;;;;;;16.57;52.25;101105.52;1773439;81;20486;-62
2021/04/13 11:44:14;;;;;;;;;;;;;;;16.63;52.20;101103.34;1766663;81;20223;-61
2021/04/13 11:47:55;;;;;;;;;;;;;;;16.62;52.04;101103.02;1754544;79;20286;-62
2021/04/13 11:51:24;;;;;;;;;;;;;;;16.59;52.05;101100.10;1719844;83;20590;-61
2021/04/13 11:54:48;;;;;;;;;;;;;;;16.53;51.96;101098.65;1728982;81;20214;-61
2021/04/13 11:58:24;;;;;;;;;;;;;;;16.48;52.31;101098.37;1727135;82;20503;-63
2021/04/13 12:01:31;;;;;;;;;;;;;;;16.47;52.33;101099.44;1748601;82;20631;-60
2021/04/13 12:04:53;;;;;;;;;;;;;;;16.39;52.53;101097.08;1739786;82;20280;-61
2021/04/13 12:07:57;;;;;;;;;;;;;;;16.33;52.54;101096.49;1727020;82;20260;-62
2021/04/13 12:11:19;;;;;;;;;;;;;;;16.28;52.74;101092.07;1740405;82;20255;-62
2021/04/13 12:14:37;;;;;;;;;;;;;;;16.21;52.70;101093.92;1740549;82;20212;-63
2021/04/13 12:17:51;;;;;;;;;;;;;;;16.12;52.92;101086.81;1740942;82;20208;-62
2021/04/13 12:20:56;;;;;;;;;;;;;;;16.13;53.10;101084.88;1741117;82;20200;-58
2021/04/13 12:24:10;;;;;;;;;;;;;;;16.15;53.25;101087.80;1740853;82;20228;-59
2021/04/13 12:27:38;;;;;;;;;;;;;;;16.15;53.00;101084.17;1740530;82;20240;-59
2021/04/13 12:30:50;;;;;;;;;;;;;;;16.10;52.96;101075.09;1749568;80;20208;-58
2021/04/13 12:34:00;;;;;;;;;;;;;;;16.14;53.24;101071.42;1732512;80;20351;-60
2021/04/13 12:37:05;;;;;;;;;;;;;;;16.21;53.04;101080.63;1749760;82;20220;-60
2021/04/13 12:40:18;;;;;;;;;;;;;;;16.25;52.82;101075.89;1748274;82;20204;-60
2021/04/13 12:43:33;;;;;;;;;;;;;;;16.27;52.85;101076.56;1748654;82;20273;-60
2021/04/13 12:46:45;;;;;;;;;;;;;;;16.25;52.68;101070.36;1728530;81;20216;-58
2021/04/13 12:49:53;;;;;;;;;;;;;;;16.21;52.92;101073.20;1757992;80;20228;-58
2021/04/13 12:53:00;;;;;;;;;;;;;;;16.17;52.69;101071.03;1758115;81;20196;-59
2021/04/13 12:56:12;;;;;;;;;;;;;;;16.12;52.74;101068.86;1753828;82;20254;-58
2021/04/13 12:59:21;;;;;;;;;;;;;;;16.12;52.82;101056.94;1755766;81;20230;-59
2021/04/13 13:02:44;;;;;;;;;;;;;;;16.11;52.84;101062.98;1755857;81;20238;-60
2021/04/13 13:05:50;;;;;;;;;;;;;;;16.05;53.01;101061.01;1739874;82;20278;-59
2021/04/13 13:09:18;;;;;;;;;;;;;;;15.99;53.19;101059.03;1740094;82;20352;-61
2021/04/13 13:12:27;;;;;;;;;;;;;;;15.95;53.33;101050.78;1759749;81;20599;-59
2021/04/13 13:15:35;;;;;;;;;;;;;;;15.91;53.56;101060.52;1767428;81;20619;-58
2021/04/13 13:18:49;;;;;;;;;;;;;;;15.86;53.46;101058.86;1752358;80;20638;-59
2021/04/13 13:22:00;;;;;;;;;;;;;;;15.80;53.79;101054.63;1770721;81;20236;-58
2021/04/13 13:25:20;;;;;;;;;;;;;;;15.77;54.03;101057.27;1761719;81;20311;-60
2021/04/13 13:28:28;;;;;;;;;;;;;;;15.77;54.19;101050.37;1755718;81;20631;-61
2021/04/13 13:31:40;;;;;;;;;;;;;;;15.77;54.20;101053.13;1768589;81;20286;-60
2021/04/13 13:34:45;;;;;;;;;;;;;;;15.74;54.30;101060.94;1770541;81;20308;-61
2021/04/13 13:37:59;;;;;;;;;;;;;;;15.68;54.36;101052.88;1768316;81;20275;-59
2021/04/13 13:41:03;;;;;;;;;;;;;;;15.67;54.56;101053.94;1746323;81;20514;-59
2021/04/13 13:44:07;;;;;;;;;;;;;;;15.65;54.76;101052.44;1759403;81;20650;-60
2021/04/13 13:47:17;;;;;;;;;;;;;;;15.63;54.78;101058.66;1769146;81;20342;-59
2021/04/13 13:50:32;;;;;;;;;;;;;;;15.56;54.79;101051.67;1754704;77;20240;-59
2021/04/13 13:53:37;;;;;;;;;;;;;;;15.52;54.97;101056.39;1750437;82;20291;-60
2021/04/13 13:56:44;;;;;;;;;;;;;;;15.48;55.22;101057.29;1750609;82;20308;-59
2021/04/13 13:59:54;;;;;;;;;;;;;;;15.44;55.40;101050.45;1750696;82;20204;-59
2021/04/13 14:03:19;;;;;;;;;;;;;;;15.41;55.46;101056.88;1750687;82;20200;-60
2021/04/13 14:06:26;;;;;;;;;;;;;;;15.34;55.71;101051.22;1750040;82;20535;-59
2021/04/13 14:09:32;;;;;;;;;;;;;;;15.29;55.72;101056.95;1749649;82;20220;-60
2021/04/13 14:12:40;;;;;;;;;;;;;;;15.24;55.74;101052.02;1719622;83;20493;-59
2021/04/13 14:15:48;;;;;;;;;;;;;;;15.21;55.62;101053.78;1720940;83;20248;-60
2021/04/13 14:19:00;;;;;;;;;;;;;;;15.19;55.68;101048.97;1721068;83;20274;-59
2021/04/13 14:22:09;;;;;;;;;;;;;;;15.17;55.97;101042.80;1745558;82;20568;-59
2021/04/13 14:25:28;;;;;;;;;;;;;;;15.17;55.96;101048.33;1750673;82;20546;-60
2021/04/13 14:28:37;;;;;;;;;;;;;;;15.15;55.92;101046.27;1738673;81;20640;-61
2021/04/13 14:31:44;;;;;;;;;;;;;;;15.05;55.91;101045.68;1750443;82;20208;-60
2021/04/13 14:34:50;;;;;;;;;;;;;;;14.98;56.56;101050.25;1750512;82;20308;-58
2021/04/13 14:37:57;;;;;;;;;;;;;;;14.97;56.68;101054.03;1737308;82;20216;-59
2021/04/13 14:41:01;;;;;;;;;;;;;;;14.99;56.41;101043.17;1743802;82;20499;-58
2021/04/13 14:44:06;;;;;;;;;;;;;;;14.95;56.37;101047.33;1746770;82;20833;-61
2021/04/13 14:47:15;;;;;;;;;;;;;;;14.92;56.36;101048.25;1746902;81;20204;-63
2021/04/13 14:50:29;;;;;;;;;;;;;;;14.91;56.40;101052.03;1744934;81;20208;-62
2021/04/13 14:53:34;;;;;;;;;;;;;;;14.90;56.29;101052.55;1727652;83;20213;-61
2021/04/13 14:56:39;;;;;;;;;;;;;;;14.87;56.26;101050.16;1727375;83;20248;-62
2021/04/13 14:59:45;;;;;;;;;;;;;;;14.87;56.64;101052.09;1740117;82;20208;-62
2021/04/13 15:02:50;;;;;;;;;;;;;;;14.80;56.65;101052.48;1755532;82;20204;-65
2021/04/13 15:05:55;;;;;;;;;;;;;;;14.74;56.67;101051.35;1755043;82;20197;-62
2021/04/13 15:09:00;;;;;;;;;;;;;;;14.72;56.78;101050.67;1755734;82;20231;-62
2021/04/13 15:12:06;;;;;;;;;;;;;;;14.69;56.91;101047.42;1747915;82;20490;-62
2021/04/13 15:15:14;;;;;;;;;;;;;;;14.67;57.14;101046.74;1755228;82;20243;-62
2021/04/13 15:18:19;;;;;;;;;;;;;;;14.64;57.02;101048.50;1755297;82;20209;-63
2021/04/13 15:21:29;;;;;;;;;;;;;;;14.62;57.00;101045.93;1755717;82;20207;-63
2021/04/13 15:24:34;;;;;;;;;;;;;;;14.61;57.02;101050.25;1755661;82;20200;-62
2021/04/13 15:27:40;;;;;;;;;;;;;;;14.55;57.13;101053.75;1755674;82;20243;-63
2021/04/13 15:30:50;;;;;;;;;;;;;;;14.49;57.18;101053.95;1755578;81;20240;-62
2021/04/13 15:34:03;;;;;;;;;;;;;;;14.41;57.39;101049.89;1755751;82;20299;-62
2021/04/13 15:37:11;;;;;;;;;;;;;;;14.33;57.73;101051.87;1755543;82;20240;-62
2021/04/13 15:40:16;;;;;;;;;;;;;;;14.26;57.95;101048.13;1755647;82;20612;-63
2021/04/13 15:43:41;;;;;;;;;;;;;;;14.23;58.13;101053.97;1755384;82;20252;-62
2021/04/13 15:46:45;;;;;;;;;;;;;;;14.22;58.13;101052.27;1750812;82;20244;-62
2021/04/13 15:49:50;;;;;;;;;;;;;;;14.19;58.28;101058.14;1751600;82;20488;-62
2021/04/13 15:52:58;;;;;;;;;;;;;;;14.15;58.40;101051.27;1772646;80;20207;-63
2021/04/13 15:56:02;;;;;;;;;;;;;;;14.07;58.51;101058.20;1770851;81;20208;-62
2021/04/13 15:59:05;;;;;;;;;;;;;;;14.02;58.71;101051.87;1772960;81;20251;-63
2021/04/13 16:02:09;;;;;;;;;;;;;;;14.01;58.83;101056.18;1744518;82;20514;-63
2021/04/13 16:05:15;;;;;;;;;;;;;;;14.01;59.06;101054.80;1744394;81;20232;-62
2021/04/13 16:08:20;;;;;;;;;;;;;;;14.02;59.29;101052.38;1745017;82;20196;-63
2021/04/13 16:11:24;;;;;;;;;;;;;;;14.02;59.15;101053.75;1745076;82;20231;-63
2021/04/13 16:14:31;;;;;;;;;;;;;;;14.01;59.35;101054.30;1744753;81;20240;-63
2021/04/13 16:17:36;;;;;;;;;;;;;;;14.00;59.46;101054.48;1744806;82;20215;-61
2021/04/13 16:20:42;;;;;;;;;;;;;;;13.98;59.41;101055.17;1768369;81;20199;-63
2021/04/13 16:23:46;;;;;;;;;;;;;;;13.95;59.38;101059.16;1773871;81;20223;-63
2021/04/13 16:26:54;;;;;;;;;;;;;;;13.89;59.42;101068.11;1773665;81;20211;-63
2021/04/13 16:29:59;;;;;;;;;;;;;;;13.84;59.61;101065.07;1773748;81;20231;-63
2021/04/13 16:33:07;;;;;;;;;;;;;;;13.75;59.64;101070.80;1773756;81;20238;-62